Cologne, Minnesota
Current Conditions -  °F | °C
As of 1:14 PM on Thursday 18 Dec 2014 (Local Time) from KGYL Reporting Station
Scattered Clouds Scattered Clouds  
Wind Chill: 15°   Ceiling: Unl
Heat Index: 21°   Visibility: 10mi
Dew Point: 15°   Wind: 5mph
Humidity: 78%   Direction: 100°E
Pressure: 30.24"   Gusts: NA
Location:  44.77°N, 93.78°W
Report Text: KGYL 181914Z AUTO 10004KT 10SM SCT015 M06/M09 A3024 RMK AO2 T10601092
Loading
Personal Weather Stations






























Interactive Weather Map New forecast layout! Learn more

10-Day Weather Forecast

Advertisements
Track Severe Weather on mobile